KTUP/TUP METAR and TAF weather

Enter ICAO airport designator
Station Type Date Time Source
KTUP METAR 2019/11/21 02:53 UTC NOAA

KTUP 210253Z 13005KT 10SM CLR 14/03 A3017 RMK AO2 SLP216 T01390028 50007 $


Station Type Date Time Source
KTUP Decoded METAR 2019/11/21 02:53 UTC NOAA

TUPELO REGIONAL AIRPORT, MS, United States (KTUP) 34-16N 88-46W 105M
Nov 20, 2019 - 09:53 PM EST / 2019.11.21 0253 UTC
Wind: from the SE (130 degrees) at 6 MPH (5 KT):0
Visibility: 10 mile(s):0
Sky conditions: clear
Temperature: 57.0 F (13.9 C)
Dew Point: 37.0 F (2.8 C)
Relative Humidity: 47%
Pressure (altimeter): 30.17 in. Hg (1021 hPa)
Pressure tendency: 0.02 inches (0.7 hPa) higher than three hours ago
ob: KTUP 210253Z 13005KT 10SM CLR 14/03 A3017 RMK AO2 SLP216 T01390028 50007
cycle: 3

Station Type Date Time Source
KTUP TAF 2019/11/20 18:30 UTC NOAA

TAF KTUP 201726Z 2018/2118 11006KT P6SM SKC
FM210000 VRB03KT P6SM BKN150
FM211200 19006KT P6SM BKN250

Example: see airport list